This is the latest recevied weather packets stored in our database for station/object K3HM. If no packets are shown the sender has not sent any weather packets the latest 10 day(s).
| Time | Temp. | Humidity | Pressure | Rain* | Wind** | Luminosity | Snow |
|---|---|---|---|---|---|---|---|
| 1777568783 | 7.78° C | 88% | 1011.5 hPa | 0 mm | - | 200 W/m² | - |
| 1777568482 | 7.78° C | 90% | 1011.6 hPa | 0 mm | - | 266 W/m² | - |
| 1777568177 | 7.22° C | 91% | 1011.4 hPa | 0 mm | - | 571 W/m² | - |
| 1777567875 | 7.22° C | 92% | 1011.4 hPa | 0 mm | - | 147 W/m² | - |
| 1777567571 | 7.22° C | 93% | 1011.5 hPa | 0 mm | - | 295 W/m² | - |
| 1777567268 | 7.22° C | 93% | 1011.6 hPa | 1.78 mm | - | 257 W/m² | - |
| 1777566967 | 6.67° C | 92% | 1011.5 hPa | 1.78 mm | - | 258 W/m² | - |
| 1777566664 | 6.67° C | 92% | 1011.9 hPa | 0 mm | - | 136 W/m² | - |
| 1777566361 | 7.78° C | 89% | 1011.6 hPa | 0 mm | - | 117 W/m² | - |
| 1777566058 | 8.89° C | 84% | 1011.6 hPa | 0 mm | - | 191 W/m² | - |
| 1777565754 | 8.89° C | 83% | 1011.5 hPa | 0 mm | - | 427 W/m² | - |
| 1777565450 | 8.89° C | 82% | 1011.3 hPa | 0 mm | - | 366 W/m² | - |
| 1777565146 | 8.33° C | 83% | 1011.4 hPa | 0 mm | - | 327 W/m² | - |
| 1777564838 | 9.44° C | 81% | 1011.4 hPa | 0 mm | - | 232 W/m² | - |
| 1777564538 | 8.89° C | 83% | 1011.4 hPa | 0 mm | - | 596 W/m² | - |
| 1777564233 | 7.78° C | 85% | 1011.3 hPa | 0 mm | - | 319 W/m² | - |
| 1777563930 | 8.33° C | 84% | 1011.4 hPa | 0 mm | - | 156 W/m² | - |
| 1777563626 | 8.89° C | 79% | 1011.2 hPa | 0 mm | - | 67 W/m² | - |
| 1777563326 | 8.89° C | 79% | 1011.3 hPa | 0 mm | - | 218 W/m² | - |
| 1777563023 | 9.44° C | 79% | 1011.1 hPa | 0 mm | - | 241 W/m² | - |
| 1777562718 | 10° C | 79% | 1011.1 hPa | 0 mm | - | 246 W/m² | - |
| 1777562418 | 8.89° C | 78% | 1010.8 hPa | 0 mm | - | 390 W/m² | - |
| 1777562114 | 8.89° C | 79% | 1011.1 hPa | 0 mm | - | 265 W/m² | - |
| 1777561812 | 8.33° C | 80% | 1010.8 hPa | 0 mm | - | 212 W/m² | - |
| 1777561508 | 8.89° C | 79% | 1011 hPa | 0 mm | - | 143 W/m² | - |
* Rain latest hour (hover to see other rain measurements)
** Current wind speed in m/s (hover to see current wind gust speed)